Time;durP1;ratioP1;P1;durP2;ratioP2;P2;SDS_P1;SDS_P2;PMS_P1;PMS_P2;Temp;Humidity;BMP_temperature;BMP_pressure;BME280_temperature;BME280_humidity;BME280_pressure;Samples;Min_cycle;Max_cycle;Signal;HPM_P1;HPM_P2
2023/04/12 00:00:16;;;;;;;14.40;7.82;;;3.80;99.90;;;;;;2603412;54;20914;31
2023/04/12 00:02:52;;;;;;;15.85;9.05;;;3.80;99.90;;;;;;2622507;46;20760;31
2023/04/12 00:05:29;;;;;;;18.00;10.07;;;3.80;99.90;;;;;;2603448;54;20967;31
2023/04/12 00:08:09;;;;;;;18.13;9.18;;;3.80;99.90;;;;;;2603637;54;20037;31
2023/04/12 00:10:45;;;;;;;15.57;8.47;;;3.80;99.90;;;;;;2603622;54;20111;31
2023/04/12 00:13:20;;;;;;;16.95;9.90;;;3.80;99.90;;;;;;2622267;46;20246;31
2023/04/12 00:15:55;;;;;;;18.00;9.70;;;3.80;99.90;;;;;;2621906;46;20026;31
2023/04/12 00:18:31;;;;;;;16.15;9.73;;;3.80;99.90;;;;;;2603561;54;20072;31
2023/04/12 00:21:09;;;;;;;15.57;9.30;;;3.80;99.90;;;;;;2621900;46;20966;31
2023/04/12 00:23:48;;;;;;;14.57;8.15;;;3.70;99.90;;;;;;2603647;54;20787;31
2023/04/12 00:26:23;;;;;;;12.40;8.05;;;3.80;99.90;;;;;;2603304;54;20108;31
2023/04/12 00:28:58;;;;;;;12.10;7.85;;;3.80;99.90;;;;;;2621992;46;20828;31
2023/04/12 00:31:34;;;;;;;17.15;9.13;;;3.70;99.90;;;;;;2603557;54;20026;31
2023/04/12 00:34:09;;;;;;;;;;;3.70;99.90;;;;;;2603715;54;20030;31
2023/04/12 00:36:45;;;;;;;17.63;7.72;;;3.70;99.90;;;;;;2603348;54;20730;31
2023/04/12 00:39:23;;;;;;;13.85;7.90;;;3.70;99.90;;;;;;2603621;54;20088;31
2023/04/12 00:41:59;;;;;;;18.63;8.27;;;3.70;99.90;;;;;;2621720;46;20034;31
2023/04/12 00:44:35;;;;;;;14.67;7.83;;;3.70;99.90;;;;;;2603334;54;20078;31
2023/04/12 00:47:10;;;;;;;14.98;7.65;;;3.70;99.90;;;;;;2720377;39;22466;31
2023/04/12 00:49:46;;;;;;;11.90;6.75;;;3.70;99.90;;;;;;2603463;54;20027;31
2023/04/12 00:52:26;;;;;;;13.35;7.15;;;3.70;99.90;;;;;;2621895;46;20121;31
2023/04/12 00:55:01;;;;;;;13.77;6.90;;;3.70;99.90;;;;;;2621496;46;20889;31
2023/04/12 00:57:39;;;;;;;12.02;7.03;;;3.60;99.90;;;;;;2603477;54;20085;31
2023/04/12 01:00:20;;;;;;;13.63;6.70;;;3.60;99.90;;;;;;2603263;54;20911;31
2023/04/12 01:02:57;;;;;;;15.55;7.20;;;3.60;99.90;;;;;;2621542;46;20915;31
2023/04/12 01:05:33;;;;;;;14.65;6.90;;;3.60;99.90;;;;;;2613371;46;20902;31
2023/04/12 01:08:14;;;;;;;14.40;7.47;;;3.60;99.90;;;;;;2602487;54;20866;31
2023/04/12 01:10:55;;;;;;;12.60;6.82;;;3.60;99.90;;;;;;2603255;54;20033;31
2023/04/12 01:13:37;;;;;;;12.63;6.78;;;3.50;99.90;;;;;;2701708;39;20557;31
2023/04/12 01:16:15;;;;;;;11.55;6.85;;;3.60;99.90;;;;;;2603526;54;20026;31
2023/04/12 01:18:52;;;;;;;12.95;6.65;;;3.50;99.90;;;;;;2603492;54;20143;31
2023/04/12 01:21:33;;;;;;;12.20;6.95;;;3.50;99.90;;;;;;2603161;54;20056;31
2023/04/12 01:24:24;;;;;;;15.50;6.55;;;3.50;99.90;;;;;;2603420;54;20867;31
2023/04/12 01:27:01;;;;;;;13.95;6.50;;;3.50;99.90;;;;;;2621848;46;20022;31
2023/04/12 01:29:40;;;;;;;10.88;6.93;;;3.50;99.90;;;;;;2603194;54;20085;31
2023/04/12 01:32:14;;;;;;;11.93;6.07;;;3.40;99.90;;;;;;2603130;54;20038;31
2023/04/12 01:34:50;;;;;;;10.57;5.70;;;3.40;99.90;;;;;;2603400;54;20033;31
2023/04/12 01:37:25;;;;;;;;;;;3.40;99.90;;;;;;2608470;46;20023;31
2023/04/12 01:40:00;;;;;;;9.83;6.17;;;3.40;99.90;;;;;;2603349;54;19943;31
2023/04/12 01:42:37;;;;;;;13.98;6.13;;;3.40;99.90;;;;;;2602958;54;20024;31
2023/04/12 01:45:15;;;;;;;9.93;6.07;;;3.40;99.90;;;;;;2603445;54;20027;31
2023/04/12 01:47:50;;;;;;;14.32;5.93;;;3.40;99.90;;;;;;2603141;54;20057;31
2023/04/12 01:50:27;;;;;;;12.23;5.78;;;3.50;99.90;;;;;;2603180;54;20026;31
2023/04/12 01:53:05;;;;;;;9.93;6.13;;;3.50;99.90;;;;;;2603135;54;20033;31
2023/04/12 01:55:41;;;;;;;13.13;6.20;;;3.50;99.90;;;;;;2603115;54;19950;31
2023/04/12 01:58:19;;;;;;;11.27;5.82;;;3.50;99.90;;;;;;2603198;54;20027;31
2023/04/12 02:00:57;;;;;;;10.23;5.38;;;3.60;99.90;;;;;;2621583;46;20061;31
2023/04/12 02:03:32;;;;;;;11.00;5.50;;;3.60;99.90;;;;;;2603192;54;20029;31
2023/04/12 02:06:11;;;;;;;10.32;5.93;;;3.60;99.90;;;;;;2603238;54;20907;31
2023/04/12 02:08:46;;;;;;;8.85;5.28;;;3.60;99.90;;;;;;2603162;54;20108;31
2023/04/12 02:11:21;;;;;;;13.27;6.20;;;3.50;99.90;;;;;;2602326;54;20041;31
2023/04/12 02:13:56;;;;;;;14.17;5.47;;;3.50;99.90;;;;;;2603042;54;20072;31
2023/04/12 02:16:41;;;;;;;10.27;6.03;;;3.50;99.90;;;;;;2602975;54;20251;31
2023/04/12 02:19:16;;;;;;;10.65;5.60;;;3.40;99.90;;;;;;2603119;54;20031;31
2023/04/12 02:21:53;;;;;;;11.85;5.85;;;3.40;99.90;;;;;;2602968;54;20893;31
2023/04/12 02:24:29;;;;;;;9.52;5.97;;;3.40;99.90;;;;;;2603167;54;20904;31
2023/04/12 02:27:05;;;;;;;11.77;6.35;;;3.30;99.90;;;;;;2602936;54;20116;31
2023/04/12 02:29:41;;;;;;;9.52;5.47;;;3.30;99.90;;;;;;2602864;54;20082;31
2023/04/12 02:32:19;;;;;;;17.65;8.15;;;3.30;99.90;;;;;;2602934;54;20150;31
2023/04/12 02:34:56;;;;;;;12.95;6.20;;;3.30;99.90;;;;;;2621740;47;20066;31
2023/04/12 02:37:32;;;;;;;9.40;5.40;;;3.30;99.90;;;;;;2603049;54;20022;31
2023/04/12 02:40:09;;;;;;;12.00;7.30;;;3.30;99.90;;;;;;2603116;54;20089;31
2023/04/12 02:42:46;;;;;;;10.13;6.35;;;3.40;99.90;;;;;;2602991;54;20022;31
2023/04/12 02:45:23;;;;;;;13.00;6.30;;;3.30;99.90;;;;;;2603116;54;20030;31
2023/04/12 02:48:05;;;;;;;11.10;6.35;;;3.30;99.90;;;;;;2603028;54;20037;31
2023/04/12 02:50:40;;;;;;;13.18;6.40;;;3.30;99.90;;;;;;2602906;54;20086;31
2023/04/12 02:53:21;;;;;;;6.80;4.63;;;3.30;99.90;;;;;;2602861;54;20128;31
2023/04/12 02:56:18;;;;;;;9.77;5.90;;;3.30;99.90;;;;;;2603714;54;20883;31
2023/04/12 02:58:59;;;;;;;9.48;5.32;;;3.30;99.90;;;;;;2603825;54;20023;31
2023/04/12 03:01:57;;;;;;;8.05;4.63;;;3.30;99.90;;;;;;2603622;54;20026;31
2023/04/12 03:04:39;;;;;;;6.75;4.35;;;3.30;99.90;;;;;;2603730;54;20915;31
2023/04/12 03:07:22;;;;;;;10.25;5.45;;;3.30;99.90;;;;;;2603860;54;20031;31
2023/04/12 03:09:58;;;;;;;10.98;4.68;;;3.30;99.90;;;;;;2622470;46;20026;31
2023/04/12 03:12:34;;;;;;;7.27;5.33;;;3.20;99.90;;;;;;2622116;46;20052;31
2023/04/12 03:15:26;;;;;;;10.27;4.68;;;3.10;99.90;;;;;;2622576;46;20265;31
2023/04/12 03:18:03;;;;;;;10.05;5.72;;;3.10;99.90;;;;;;2622187;46;20124;31
2023/04/12 03:20:51;;;;;;;14.10;5.80;;;3.10;99.90;;;;;;2622144;46;20081;31
2023/04/12 03:26:10;;;;;;;12.70;6.00;;;3.00;99.90;;;;;;2603785;54;20034;31
2023/04/12 03:28:52;;;;;;;12.70;6.15;;;2.90;99.90;;;;;;2621923;46;20889;31
2023/04/12 03:31:30;;;;;;;12.23;5.57;;;2.90;99.90;;;;;;2603744;54;20058;31
2023/04/12 03:34:11;;;;;;;13.55;7.45;;;2.90;99.90;;;;;;2603466;54;20754;31
2023/04/12 03:36:54;;;;;;;12.47;7.13;;;2.80;99.90;;;;;;2603455;54;20887;31
2023/04/12 03:39:46;;;;;;;12.32;7.18;;;2.70;99.90;;;;;;2603599;54;20049;31
2023/04/12 03:42:28;;;;;;;16.65;7.53;;;2.70;99.90;;;;;;2603516;54;20034;31
2023/04/12 03:45:16;;;;;;;15.15;8.65;;;2.70;99.90;;;;;;2603767;54;20042;31
2023/04/12 03:47:57;;;;;;;13.30;6.73;;;2.70;99.90;;;;;;2603548;54;20022;31
2023/04/12 03:50:40;;;;;;;11.65;7.60;;;2.70;99.90;;;;;;2603383;54;20038;31
2023/04/12 03:53:20;;;;;;;12.98;8.13;;;2.70;99.90;;;;;;2622159;46;20038;31
2023/04/12 03:55:56;;;;;;;10.93;6.57;;;2.70;99.90;;;;;;2603449;54;20176;31
2023/04/12 03:58:36;;;;;;;12.27;6.82;;;2.60;99.90;;;;;;2603539;54;20770;31
2023/04/12 04:01:16;;;;;;;12.88;7.07;;;2.60;99.90;;;;;;2621817;46;20027;31
2023/04/12 04:03:53;;;;;;;9.07;5.20;;;2.60;99.90;;;;;;2603359;54;20136;31
2023/04/12 04:06:33;;;;;;;12.40;6.07;;;2.60;99.90;;;;;;2603303;54;20026;31
2023/04/12 04:09:11;;;;;;;9.65;6.53;;;2.60;99.90;;;;;;2603572;54;19960;31
2023/04/12 04:11:46;;;;;;;12.60;6.95;;;2.70;99.90;;;;;;2603665;54;20140;31
2023/04/12 04:14:21;;;;;;;13.07;8.13;;;2.70;99.90;;;;;;2603697;54;20838;31
2023/04/12 04:16:58;;;;;;;15.52;8.93;;;2.70;99.90;;;;;;2603496;54;20030;31
2023/04/12 04:19:33;;;;;;;17.20;9.18;;;2.70;99.90;;;;;;2603434;54;20945;31
2023/04/12 04:22:09;;;;;;;19.30;8.85;;;2.70;99.90;;;;;;2603352;54;20886;31
2023/04/12 04:24:47;;;;;;;12.45;7.25;;;2.70;99.90;;;;;;2603404;54;20875;31
2023/04/12 04:27:22;;;;;;;12.80;8.07;;;2.70;99.90;;;;;;2603536;54;20029;31
2023/04/12 04:30:01;;;;;;;12.57;6.90;;;2.70;99.90;;;;;;2603391;54;20022;31
2023/04/12 04:32:37;;;;;;;12.10;7.60;;;2.60;99.90;;;;;;2603618;54;20835;31
2023/04/12 04:35:14;;;;;;;9.67;5.70;;;2.60;99.90;;;;;;2603534;54;20038;31
2023/04/12 04:38:04;;;;;;;12.10;7.90;;;2.70;99.90;;;;;;2603594;54;20022;31
2023/04/12 04:40:46;;;;;;;14.50;7.13;;;2.70;99.90;;;;;;2621631;46;22364;31
2023/04/12 04:43:21;;;;;;;15.55;7.70;;;2.80;99.90;;;;;;2603242;54;20875;31
2023/04/12 04:46:01;;;;;;;14.45;7.40;;;2.80;99.90;;;;;;2621855;46;20033;31
2023/04/12 04:48:39;;;;;;;13.10;8.38;;;2.90;99.90;;;;;;2621796;46;20037;31
2023/04/12 04:51:14;;;;;;;11.80;7.00;;;3.00;99.90;;;;;;2603334;54;20554;31
2023/04/12 04:53:50;;;;;;;13.93;7.50;;;3.10;99.90;;;;;;2603641;54;20030;31
2023/04/12 04:56:29;;;;;;;12.32;6.28;;;3.20;99.90;;;;;;2719943;39;20482;31
2023/04/12 04:59:06;;;;;;;9.95;6.15;;;3.40;99.90;;;;;;2603483;54;20027;31
2023/04/12 05:01:42;;;;;;;8.52;5.70;;;3.60;99.90;;;;;;2603510;54;20038;31
2023/04/12 05:04:19;;;;;;;12.10;6.70;;;3.80;99.90;;;;;;2621356;46;20034;31
2023/04/12 05:06:53;;;;;;;;;;;4.00;99.90;;;;;;2603363;54;20760;31
2023/04/12 05:09:32;;;;;;;14.73;6.10;;;4.10;99.90;;;;;;2603203;54;19935;31
2023/04/12 05:12:11;;;;;;;12.67;5.47;;;4.20;99.90;;;;;;2603678;54;20059;31
2023/04/12 05:14:53;;;;;;;9.32;5.50;;;4.40;99.90;;;;;;2603501;54;21181;31
2023/04/12 05:17:46;;;;;;;9.52;5.85;;;4.70;99.90;;;;;;2621422;46;20885;31
2023/04/12 05:20:22;;;;;;;;;;;4.90;99.90;;;;;;2603524;54;20768;31
2023/04/12 05:22:58;;;;;;;12.00;5.10;;;5.00;99.90;;;;;;2603342;54;19941;31
2023/04/12 05:25:33;;;;;;;11.25;5.85;;;5.20;99.90;;;;;;2603409;54;20106;31
2023/04/12 05:28:17;;;;;;;8.77;5.07;;;5.40;99.90;;;;;;2602494;54;20048;31
2023/04/12 05:30:52;;;;;;;8.40;5.72;;;5.50;99.90;;;;;;2603230;54;20157;31
2023/04/12 05:33:33;;;;;;;9.13;5.55;;;5.70;99.90;;;;;;2603471;54;20839;31
2023/04/12 05:36:09;;;;;;;10.20;5.70;;;5.90;99.90;;;;;;2602564;54;20027;31
2023/04/12 05:38:48;;;;;;;9.45;5.53;;;6.10;99.90;;;;;;2603146;54;20258;31
2023/04/12 05:41:24;;;;;;;9.65;5.05;;;6.20;99.90;;;;;;2603227;54;20037;31
2023/04/12 05:44:02;;;;;;;9.68;5.50;;;6.40;99.90;;;;;;2602410;54;20889;31
2023/04/12 05:46:40;;;;;;;8.00;5.00;;;6.60;99.90;;;;;;2603234;54;20081;31
2023/04/12 05:49:19;;;;;;;9.45;4.80;;;7.00;99.90;;;;;;2603332;54;20038;31
2023/04/12 05:51:57;;;;;;;6.97;5.22;;;7.20;99.90;;;;;;2621491;46;20038;31
2023/04/12 05:54:35;;;;;;;8.93;6.13;;;7.50;99.90;;;;;;2621588;46;20023;31
2023/04/12 05:57:13;;;;;;;11.75;6.32;;;7.80;99.90;;;;;;2603335;54;20081;31
2023/04/12 05:59:51;;;;;;;8.25;5.00;;;8.10;99.90;;;;;;2603205;54;20033;31
2023/04/12 06:02:29;;;;;;;7.90;5.10;;;8.40;99.90;;;;;;2603212;54;20050;31
2023/04/12 06:05:09;;;;;;;9.45;5.60;;;8.70;99.90;;;;;;2603336;54;20029;31
2023/04/12 06:07:45;;;;;;;15.10;4.97;;;9.00;99.90;;;;;;2603338;54;20863;31
2023/04/12 06:10:23;;;;;;;10.02;5.45;;;9.20;99.90;;;;;;2603192;54;20034;31
2023/04/12 06:13:02;;;;;;;8.30;4.80;;;9.40;99.90;;;;;;2603386;54;20034;31
2023/04/12 06:15:45;;;;;;;9.57;5.05;;;9.60;99.90;;;;;;2603463;54;20093;31
2023/04/12 06:18:22;;;;;;;8.27;5.17;;;9.90;99.90;;;;;;2602970;54;20026;31
2023/04/12 06:20:59;;;;;;;9.23;5.43;;;10.10;99.90;;;;;;2602318;54;20022;31
2023/04/12 06:23:37;;;;;;;7.07;4.93;;;10.30;99.90;;;;;;2602361;54;20797;31
2023/04/12 06:26:16;;;;;;;9.13;5.32;;;10.50;99.90;;;;;;2602145;54;20848;31
2023/04/12 06:28:53;;;;;;;8.75;5.20;;;10.80;99.90;;;;;;2615253;47;20030;31
2023/04/12 06:31:33;;;;;;;10.27;5.00;;;10.90;99.90;;;;;;2604043;54;20030;31
2023/04/12 06:34:09;;;;;;;15.75;5.47;;;11.10;99.90;;;;;;2603123;54;20030;31
2023/04/12 06:36:46;;;;;;;16.05;5.05;;;11.40;99.90;;;;;;2622227;46;20037;31
2023/04/12 06:39:29;;;;;;;10.13;4.78;;;12.00;99.90;;;;;;2603910;54;20184;31
2023/04/12 06:42:05;;;;;;;10.75;5.05;;;12.40;99.90;;;;;;2603721;54;20057;31
2023/04/12 06:44:51;;;;;;;7.97;4.75;;;12.60;99.90;;;;;;2603708;54;20086;31
2023/04/12 06:47:31;;;;;;;8.10;4.47;;;12.80;99.90;;;;;;2603928;54;20744;31
2023/04/12 06:50:09;;;;;;;7.97;4.38;;;12.80;99.90;;;;;;2603896;54;20022;31
2023/04/12 06:52:47;;;;;;;10.53;4.87;;;12.90;99.90;;;;;;2622264;46;20037;31
2023/04/12 06:55:25;;;;;;;7.95;4.75;;;13.00;99.90;;;;;;2622212;46;20872;31
2023/04/12 06:58:02;;;;;;;7.20;4.30;;;13.20;99.90;;;;;;2603676;54;20031;31
2023/04/12 07:00:38;;;;;;;9.23;3.60;;;13.30;99.90;;;;;;2603220;54;20306;31
2023/04/12 07:03:23;;;;;;;8.32;3.95;;;13.40;99.90;;;;;;2603848;54;20038;31
2023/04/12 07:06:01;;;;;;;9.00;3.80;;;13.60;99.90;;;;;;2622356;46;20042;31
2023/04/12 07:08:50;;;;;;;7.18;4.03;;;13.90;99.90;;;;;;2604025;54;20139;31
2023/04/12 07:11:35;;;;;;;7.15;3.60;;;14.00;99.90;;;;;;2603312;54;20529;31
2023/04/12 07:14:12;;;;;;;7.78;3.33;;;14.20;99.90;;;;;;2621516;46;20030;31
2023/04/12 07:16:50;;;;;;;6.67;3.50;;;14.40;99.90;;;;;;2701572;39;20452;31
2023/04/12 07:19:30;;;;;;;5.70;3.90;;;14.50;99.90;;;;;;2720548;39;20713;31
2023/04/12 07:22:05;;;;;;;8.20;3.75;;;14.70;99.90;;;;;;2608140;46;20029;31
2023/04/12 07:24:44;;;;;;;4.75;3.42;;;14.80;99.90;;;;;;2621411;46;20027;31
2023/04/12 07:27:21;;;;;;;5.95;2.80;;;14.90;99.90;;;;;;2622185;46;20842;31
2023/04/12 07:29:58;;;;;;;4.40;3.22;;;14.90;99.90;;;;;;2603812;54;20034;31
2023/04/12 07:32:34;;;;;;;4.57;3.05;;;14.90;99.90;;;;;;2603533;54;21315;31
2023/04/12 07:35:14;;;;;;;5.57;3.03;;;15.00;99.90;;;;;;2603486;54;20045;31
2023/04/12 07:37:53;;;;;;;5.93;2.92;;;15.30;99.90;;;;;;2603701;54;20038;31
2023/04/12 07:40:29;;;;;;;5.70;3.17;;;15.50;99.90;;;;;;2622005;46;20849;31
2023/04/12 07:43:07;;;;;;;6.95;2.60;;;15.60;99.90;;;;;;2603872;54;20019;31
2023/04/12 07:45:42;;;;;;;3.22;1.88;;;15.70;99.90;;;;;;2603613;54;20057;31
2023/04/12 07:48:19;;;;;;;4.32;2.58;;;15.90;99.90;;;;;;2603437;54;20481;31
2023/04/12 07:51:05;;;;;;;4.60;3.00;;;16.10;99.90;;;;;;2603814;54;20103;31
2023/04/12 07:53:50;;;;;;;3.85;2.30;;;16.40;99.90;;;;;;2622237;46;19934;31
2023/04/12 07:56:27;;;;;;;6.20;3.05;;;16.10;99.90;;;;;;2603521;54;20057;31
2023/04/12 07:59:05;;;;;;;7.50;3.05;;;15.60;99.90;;;;;;2621883;46;20132;31
2023/04/12 08:01:42;;;;;;;6.88;2.47;;;15.30;99.90;;;;;;2603655;54;20034;31
2023/04/12 08:04:20;;;;;;;6.32;2.20;;;15.10;99.90;;;;;;2603532;54;20028;31
2023/04/12 08:07:01;;;;;;;3.40;1.60;;;15.30;99.90;;;;;;2603501;54;20873;31
2023/04/12 08:09:41;;;;;;;4.70;2.15;;;15.60;99.90;;;;;;2602830;54;20783;31
2023/04/12 08:12:25;;;;;;;5.20;1.92;;;15.60;99.90;;;;;;2613995;46;20039;31
2023/04/12 08:15:05;;;;;;;3.27;2.03;;;15.40;99.90;;;;;;2603516;54;20018;31
2023/04/12 08:17:42;;;;;;;3.55;1.95;;;15.00;99.90;;;;;;2621645;46;20022;31
2023/04/12 08:20:21;;;;;;;3.30;1.63;;;14.90;99.90;;;;;;2602979;54;20042;31
2023/04/12 08:23:04;;;;;;;4.32;1.65;;;14.90;99.90;;;;;;2603072;54;20038;31
2023/04/12 08:25:42;;;;;;;2.95;1.63;;;14.70;99.90;;;;;;2603636;54;20791;31
2023/04/12 08:28:21;;;;;;;3.72;1.90;;;14.30;99.90;;;;;;2603624;54;20018;31
2023/04/12 08:30:56;;;;;;;4.30;1.70;;;14.40;99.90;;;;;;2603321;54;20968;31
2023/04/12 08:33:35;;;;;;;4.88;2.05;;;14.80;99.90;;;;;;2622048;46;20030;31
2023/04/12 08:36:12;;;;;;;4.85;2.03;;;15.20;99.90;;;;;;2603584;54;20678;31
2023/04/12 08:38:56;;;;;;;6.45;2.00;;;15.60;99.90;;;;;;2603294;54;21394;31
2023/04/12 08:41:35;;;;;;;5.00;2.50;;;15.80;99.90;;;;;;2603339;54;20023;31
2023/04/12 08:44:21;;;;;;;5.00;3.13;;;15.50;99.90;;;;;;2621611;46;20940;31
2023/04/12 08:46:57;;;;;;;5.80;2.58;;;15.20;99.90;;;;;;2602944;54;20910;31
2023/04/12 08:49:33;;;;;;;;;;;14.90;99.90;;;;;;2602552;54;20029;31
2023/04/12 08:52:14;;;;;;;5.07;2.60;;;14.60;99.90;;;;;;2602176;54;19934;31
2023/04/12 08:54:55;;;;;;;3.95;2.25;;;14.20;99.90;;;;;;2603623;54;20900;31
2023/04/12 08:57:32;;;;;;;7.40;2.78;;;14.20;99.90;;;;;;2603298;54;20117;31
2023/04/12 09:00:12;;;;;;;6.80;2.92;;;14.20;99.90;;;;;;2603420;54;20110;31
2023/04/12 09:02:49;;;;;;;9.40;4.25;;;14.40;99.90;;;;;;2621954;46;20054;31
2023/04/12 09:05:30;;;;;;;7.55;3.90;;;14.50;99.90;;;;;;2608748;46;20768;31
2023/04/12 09:08:08;;;;;;;4.15;2.25;;;14.80;99.90;;;;;;2603318;54;20762;31
2023/04/12 09:10:47;;;;;;;6.45;2.40;;;14.80;99.90;;;;;;2603422;54;20874;31
2023/04/12 09:13:35;;;;;;;5.20;2.30;;;15.10;99.90;;;;;;2603404;54;20839;31
2023/04/12 09:16:12;;;;;;;4.77;1.80;;;15.50;99.90;;;;;;2603568;54;20027;31
2023/04/12 09:19:01;;;;;;;3.17;1.70;;;15.90;99.90;;;;;;2621871;46;19942;31
2023/04/12 09:21:54;;;;;;;5.00;2.15;;;16.10;99.90;;;;;;2603066;54;20057;31
2023/04/12 09:24:31;;;;;;;4.45;1.30;;;16.40;99.90;;;;;;2603236;54;20785;31
2023/04/12 09:27:15;;;;;;;3.90;1.80;;;16.00;99.90;;;;;;2603129;54;20030;31
2023/04/12 09:29:53;;;;;;;5.47;1.52;;;15.80;99.90;;;;;;2621888;46;20049;31
2023/04/12 09:32:33;;;;;;;3.50;1.48;;;15.60;99.90;;;;;;2602463;54;19934;31
2023/04/12 09:35:12;;;;;;;4.68;1.63;;;15.40;99.90;;;;;;2603527;54;20748;31
2023/04/12 09:37:54;;;;;;;5.10;1.35;;;14.90;99.90;;;;;;2603282;54;20050;31
2023/04/12 09:40:42;;;;;;;6.70;1.40;;;15.00;99.90;;;;;;2621285;46;20865;31
2023/04/12 09:43:23;;;;;;;5.45;1.40;;;15.20;99.90;;;;;;2603229;54;20037;31
2023/04/12 09:46:03;;;;;;;4.00;1.33;;;15.50;99.90;;;;;;2602952;54;21030;31
2023/04/12 09:48:42;;;;;;;7.15;1.30;;;15.70;99.90;;;;;;2603436;54;20843;31
2023/04/12 09:51:28;;;;;;;2.83;0.90;;;15.70;99.90;;;;;;2603087;54;20039;31
2023/04/12 09:54:11;;;;;;;3.30;0.90;;;16.00;99.90;;;;;;2603133;54;20027;31
2023/04/12 09:57:19;;;;;;;4.85;1.20;;;16.10;99.90;;;;;;2602289;54;20760;31
2023/04/12 09:59:59;;;;;;;4.13;1.25;;;16.20;99.90;;;;;;2603228;54;20875;31
2023/04/12 10:02:45;;;;;;;3.30;1.20;;;16.40;99.90;;;;;;2603088;54;20883;31
2023/04/12 10:05:24;;;;;;;5.40;1.80;;;16.40;99.90;;;;;;2603062;54;20782;31
2023/04/12 10:08:04;;;;;;;2.97;1.23;;;16.30;99.90;;;;;;2602800;54;20026;31
2023/04/12 10:10:39;;;;;;;4.28;1.40;;;16.30;99.90;;;;;;2603119;54;20049;31
2023/04/12 10:13:16;;;;;;;4.20;1.30;;;16.40;99.90;;;;;;2621330;46;20069;31
2023/04/12 10:15:56;;;;;;;3.30;0.97;;;16.20;99.90;;;;;;2603055;54;20074;31
2023/04/12 10:18:32;;;;;;;2.17;0.80;;;16.30;99.90;;;;;;2602239;54;20251;31
2023/04/12 10:21:11;;;;;;;2.97;0.98;;;16.40;99.90;;;;;;2603173;54;19935;31
2023/04/12 10:23:50;;;;;;;4.78;1.48;;;16.50;99.90;;;;;;2602921;54;20031;31
2023/04/12 10:26:27;;;;;;;3.70;1.60;;;16.50;99.90;;;;;;2603149;54;20868;31
2023/04/12 10:29:26;;;;;;;3.30;1.10;;;16.50;99.90;;;;;;2602979;54;20901;31
2023/04/12 10:32:21;;;;;;;4.35;1.63;;;16.10;99.90;;;;;;2621760;47;20026;31
2023/04/12 10:35:04;;;;;;;4.85;1.35;;;15.90;99.90;;;;;;2602739;54;20023;31
2023/04/12 10:38:01;;;;;;;2.93;1.10;;;15.90;99.90;;;;;;2602204;54;20153;31
2023/04/12 10:40:40;;;;;;;3.40;1.30;;;16.10;99.90;;;;;;2621432;47;20033;31
2023/04/12 10:43:29;;;;;;;2.70;1.30;;;16.40;99.90;;;;;;2602897;54;20883;31
2023/04/12 10:46:09;;;;;;;3.70;1.50;;;16.60;99.90;;;;;;2621279;47;20930;31
2023/04/12 10:48:53;;;;;;;4.70;1.60;;;16.70;99.90;;;;;;2603136;54;20030;31
2023/04/12 10:51:32;;;;;;;2.85;1.27;;;16.60;99.90;;;;;;2621397;47;20027;31
2023/04/12 10:54:34;;;;;;;4.80;1.70;;;16.40;99.90;;;;;;2621090;47;20936;31
2023/04/12 10:57:48;;;;;;;4.95;1.75;;;16.10;99.90;;;;;;2602969;54;20077;31
2023/04/12 11:00:27;;;;;;;3.37;1.10;;;15.80;99.90;;;;;;2602638;54;20034;31
2023/04/12 11:03:10;;;;;;;2.28;1.00;;;15.50;99.90;;;;;;2621209;47;20026;31
2023/04/12 11:06:03;;;;;;;4.10;1.52;;;15.70;99.90;;;;;;2602931;54;20893;31
2023/04/12 11:09:30;;;;;;;2.60;1.50;;;15.90;99.90;;;;;;2602948;54;20605;31
2023/04/12 11:12:06;;;;;;;5.25;2.00;;;15.90;99.90;;;;;;2701703;39;21014;31
2023/04/12 11:14:50;;;;;;;3.60;1.40;;;15.80;99.90;;;;;;2701409;39;21620;31
2023/04/12 11:17:32;;;;;;;6.15;1.65;;;15.90;99.90;;;;;;2603807;54;20980;31
2023/04/12 11:20:14;;;;;;;3.85;1.50;;;16.00;99.90;;;;;;2603774;54;20796;31
2023/04/12 11:22:56;;;;;;;5.00;1.60;;;15.80;99.90;;;;;;2603716;54;20309;31
2023/04/12 11:25:34;;;;;;;6.85;1.75;;;15.70;99.90;;;;;;2603346;54;20101;31
2023/04/12 11:28:11;;;;;;;3.67;1.08;;;15.50;99.90;;;;;;2603706;54;20883;31
2023/04/12 11:31:01;;;;;;;3.30;1.10;;;15.40;99.90;;;;;;2621988;46;20030;31
2023/04/12 11:33:42;;;;;;;7.60;1.90;;;15.30;99.90;;;;;;2603782;54;20026;31
2023/04/12 11:36:21;;;;;;;3.28;1.25;;;15.10;99.90;;;;;;2603648;54;20064;31
2023/04/12 11:38:59;;;;;;;4.80;1.02;;;14.90;99.90;;;;;;2603001;54;20854;31
2023/04/12 11:41:37;;;;;;;4.03;1.00;;;15.10;99.90;;;;;;2702058;39;21659;31
2023/04/12 11:44:17;;;;;;;4.22;1.08;;;15.20;99.90;;;;;;2621995;46;20913;31
2023/04/12 11:47:00;;;;;;;5.00;1.00;;;15.40;99.90;;;;;;2603537;54;20045;31
2023/04/12 11:49:38;;;;;;;3.95;0.80;;;15.30;99.90;;;;;;2603553;54;21579;31
2023/04/12 11:52:13;;;;;;;7.50;1.45;;;15.10;99.90;;;;;;2622056;46;20026;31
2023/04/12 11:54:55;;;;;;;3.80;1.27;;;15.00;99.90;;;;;;2603725;54;20026;31
2023/04/12 11:57:33;;;;;;;3.08;1.30;;;15.00;99.90;;;;;;2603654;54;20030;31
2023/04/12 12:00:11;;;;;;;6.38;1.50;;;14.90;99.90;;;;;;2622024;46;20076;31
2023/04/12 12:02:49;;;;;;;3.60;1.83;;;14.80;99.90;;;;;;2603449;54;20030;31
2023/04/12 12:05:41;;;;;;;3.53;1.55;;;14.60;99.90;;;;;;2603828;54;20578;31
2023/04/12 12:08:17;;;;;;;6.18;1.55;;;14.40;99.90;;;;;;2603430;54;20859;31
2023/04/12 12:10:57;;;;;;;3.03;1.20;;;14.30;99.90;;;;;;2603453;54;20634;31
2023/04/12 12:13:48;;;;;;;3.08;1.00;;;14.20;99.90;;;;;;2603503;54;20033;31
2023/04/12 12:16:22;;;;;;;3.63;1.02;;;14.10;99.90;;;;;;2603649;54;20028;31
2023/04/12 12:18:58;;;;;;;1.83;0.83;;;13.90;99.90;;;;;;2602823;54;20875;31
2023/04/12 12:21:36;;;;;;;2.60;1.10;;;13.80;99.90;;;;;;2603606;54;20030;31
2023/04/12 12:24:13;;;;;;;3.17;1.15;;;13.70;99.90;;;;;;2603704;54;20052;31
2023/04/12 12:26:53;;;;;;;4.22;1.58;;;13.70;99.90;;;;;;2603373;54;20053;31
2023/04/12 12:29:36;;;;;;;3.42;1.13;;;13.80;99.90;;;;;;2604718;46;20333;31
2023/04/12 12:32:15;;;;;;;3.30;0.93;;;13.90;99.90;;;;;;2603666;54;20026;31
2023/04/12 12:34:57;;;;;;;3.40;1.00;;;13.80;99.90;;;;;;2603714;54;21209;31
2023/04/12 12:40:10;;;;;;;5.88;1.50;;;13.90;99.90;;;;;;2602712;54;20030;31
2023/04/12 12:42:53;;;;;;;3.13;1.50;;;13.80;99.90;;;;;;2701909;39;20485;31
2023/04/12 12:45:32;;;;;;;3.00;1.52;;;13.70;99.90;;;;;;2622125;46;20050;31
2023/04/12 12:48:11;;;;;;;3.60;1.65;;;13.70;99.90;;;;;;2603548;54;20032;31
2023/04/12 12:50:50;;;;;;;3.80;1.50;;;13.80;99.90;;;;;;2603322;54;20839;31
2023/04/12 12:53:28;;;;;;;3.75;1.15;;;13.70;99.90;;;;;;2603459;54;20104;31
2023/04/12 12:56:10;;;;;;;2.88;1.13;;;13.70;99.90;;;;;;2603332;54;20911;31
2023/04/12 12:58:51;;;;;;;3.63;1.50;;;13.80;99.90;;;;;;2603528;54;20030;31
2023/04/12 13:01:31;;;;;;;6.20;1.30;;;13.80;99.90;;;;;;2603358;54;20030;31
2023/04/12 13:04:04;;;;;;;2.25;1.05;;;13.70;99.90;;;;;;2621198;46;20023;31
2023/04/12 13:06:40;;;;;;;4.43;1.45;;;13.50;99.90;;;;;;2603503;54;20941;31
2023/04/12 13:09:18;;;;;;;6.50;1.67;;;13.40;99.90;;;;;;2621670;46;20040;31
2023/04/12 13:11:56;;;;;;;3.58;1.65;;;13.30;99.90;;;;;;2603444;54;20105;31
2023/04/12 13:14:35;;;;;;;5.82;2.50;;;13.30;99.90;;;;;;2603387;54;20094;31
2023/04/12 13:17:12;;;;;;;4.90;2.03;;;13.30;99.90;;;;;;2621547;46;20018;31
2023/04/12 13:19:50;;;;;;;4.93;1.60;;;13.30;99.90;;;;;;2603481;54;20824;31
2023/04/12 13:22:27;;;;;;;4.10;1.40;;;13.40;99.90;;;;;;2603346;54;20018;31
2023/04/12 13:25:06;;;;;;;5.53;2.00;;;13.40;99.90;;;;;;2621815;46;20029;31
2023/04/12 13:27:41;;;;;;;7.43;1.60;;;13.40;99.90;;;;;;2603066;54;20046;31
2023/04/12 13:30:23;;;;;;;5.05;1.83;;;13.40;99.90;;;;;;2621805;46;20048;31
2023/04/12 13:32:56;;;;;;;3.90;1.17;;;13.50;99.90;;;;;;2603394;54;20022;31
2023/04/12 13:35:33;;;;;;;3.75;1.65;;;13.50;99.90;;;;;;2621755;46;20744;31
2023/04/12 13:38:10;;;;;;;4.15;1.50;;;13.50;99.90;;;;;;2621495;46;20038;31
2023/04/12 13:40:48;;;;;;;2.50;1.38;;;13.50;99.90;;;;;;2701749;39;21590;31
2023/04/12 13:43:26;;;;;;;2.45;1.10;;;13.50;99.90;;;;;;2603047;54;20591;31
2023/04/12 13:46:13;;;;;;;2.63;1.33;;;13.60;99.90;;;;;;2602382;54;19934;31
2023/04/12 13:48:53;;;;;;;4.45;1.30;;;13.60;99.90;;;;;;2602397;54;20030;31
2023/04/12 13:51:32;;;;;;;3.70;1.48;;;13.50;99.90;;;;;;2602606;54;19942;31
2023/04/12 13:54:10;;;;;;;3.75;1.52;;;13.60;99.90;;;;;;2602543;54;20026;31
2023/04/12 13:56:46;;;;;;;3.85;1.48;;;13.50;99.90;;;;;;2603358;54;20031;31
2023/04/12 13:59:24;;;;;;;5.70;1.87;;;13.60;99.90;;;;;;2603177;54;19942;31
2023/04/12 14:02:05;;;;;;;3.08;1.35;;;13.60;99.90;;;;;;2612774;46;20242;31
2023/04/12 14:04:52;;;;;;;3.30;1.80;;;13.70;99.90;;;;;;2603246;54;20821;31
2023/04/12 14:07:28;;;;;;;;;;;13.60;99.90;;;;;;2621913;46;20238;31
2023/04/12 14:10:04;;;;;;;2.95;1.38;;;13.70;99.90;;;;;;2603095;54;19939;31